Time;durP1;ratioP1;P1;durP2;ratioP2;P2;SDS_P1;SDS_P2;PMS_P1;PMS_P2;Temp;Humidity;BMP_temperature;BMP_pressure;BME280_temperature;BME280_humidity;BME280_pressure;Samples;Min_cycle;Max_cycle;Signal;HPM_P1;HPM_P2
2022/06/12 00:00:08;;;;;;;0.10;0.10;;;13.60;99.90;;;;;;4951532;28;20578;-92
2022/06/12 00:02:34;;;;;;;0.10;0.10;;;13.60;99.90;;;;;;4942080;28;20187;-89
2022/06/12 00:05:00;;;;;;;0.10;0.10;;;13.50;99.90;;;;;;4952006;28;20458;-91
2022/06/12 00:07:25;;;;;;;0.10;0.10;;;13.40;99.90;;;;;;4949203;29;20198;-90
2022/06/12 00:09:51;;;;;;;0.10;0.10;;;13.50;99.90;;;;;;4951052;28;20245;-90
2022/06/12 00:12:16;;;;;;;0.10;0.10;;;13.40;99.90;;;;;;4950223;28;20313;-90
2022/06/12 00:14:42;;;;;;;0.10;0.10;;;13.20;99.90;;;;;;4933282;28;20191;-90
2022/06/12 00:17:07;;;;;;;0.10;0.10;;;13.10;99.90;;;;;;4945048;28;20234;-92
2022/06/12 00:19:33;;;;;;;0.10;0.10;;;12.90;99.90;;;;;;4946933;28;20183;-90
2022/06/12 00:21:58;;;;;;;0.10;0.10;;;13.20;99.90;;;;;;4946702;29;20206;-90
2022/06/12 00:24:25;;;;;;;0.10;0.10;;;13.20;99.90;;;;;;4945841;28;20256;-90
2022/06/12 00:26:53;;;;;;;0.10;0.10;;;13.40;99.90;;;;;;4943333;28;20231;-91
2022/06/12 00:29:23;;;;;;;0.10;0.10;;;13.30;99.90;;;;;;4932112;29;20466;-91
2022/06/12 00:31:58;;;;;;;0.10;0.10;;;13.30;99.90;;;;;;4936207;28;20513;-90
2022/06/12 00:34:27;;;;;;;0.10;0.10;;;13.30;99.90;;;;;;4931732;29;20465;-90
2022/06/12 00:36:54;;;;;;;0.10;0.10;;;13.10;99.90;;;;;;4932362;29;20479;-91
2022/06/12 00:39:20;;;;;;;0.10;0.10;;;13.30;99.90;;;;;;4928571;29;20477;-90
2022/06/12 00:41:48;;;;;;;0.10;0.10;;;13.30;99.90;;;;;;4942692;28;20536;-91
2022/06/12 00:44:16;;;;;;;0.20;0.20;;;13.20;99.90;;;;;;4931567;28;20463;-90
2022/06/12 00:46:50;;;;;;;0.10;0.10;;;13.20;99.90;;;;;;4932566;29;20454;-92
2022/06/12 00:49:36;;;;;;;0.20;0.20;;;13.10;99.90;;;;;;4931864;29;20483;-90
2022/06/12 00:52:13;;;;;;;0.10;0.10;;;13.10;99.90;;;;;;4930465;29;20566;-90
2022/06/12 00:54:42;;;;;;;0.20;0.20;;;13.00;99.90;;;;;;4944211;29;20886;-92
2022/06/12 00:57:10;;;;;;;0.10;0.10;;;12.90;99.90;;;;;;4922688;29;20455;-90
2022/06/12 00:59:42;;;;;;;0.20;0.20;;;12.80;99.90;;;;;;4927830;28;20451;-90
2022/06/12 01:02:12;;;;;;;0.10;0.10;;;12.90;99.90;;;;;;4931147;29;20951;-91
2022/06/12 01:07:28;;;;;;;0.20;0.20;;;12.90;99.90;;;;;;4934517;29;20482;-91
2022/06/12 01:09:55;;;;;;;0.10;0.10;;;12.90;99.90;;;;;;4945194;29;20456;-89
2022/06/12 01:12:25;;;;;;;0.10;0.10;;;12.80;99.90;;;;;;4923464;29;20488;-91
2022/06/12 01:14:56;;;;;;;0.10;0.10;;;12.90;99.90;;;;;;4927191;28;20810;-90
2022/06/12 01:17:24;;;;;;;0.10;0.10;;;12.90;99.90;;;;;;4937650;29;20867;-90
2022/06/12 01:19:53;;;;;;;0.10;0.10;;;12.90;99.90;;;;;;4928479;29;20443;-90
2022/06/12 01:22:50;;;;;;;0.20;0.20;;;12.90;99.90;;;;;;4931290;29;20494;-90
2022/06/12 01:25:40;;;;;;;0.10;0.10;;;12.90;99.90;;;;;;4933522;28;20577;-89
2022/06/12 01:28:40;;;;;;;0.10;0.10;;;12.80;99.90;;;;;;4932346;29;20948;-90
2022/06/12 01:31:10;;;;;;;0.10;0.10;;;12.70;99.90;;;;;;4953341;28;20488;-91
2022/06/12 01:33:47;;;;;;;0.20;0.20;;;12.80;99.90;;;;;;4930555;28;20825;-90
2022/06/12 01:36:20;;;;;;;0.10;0.10;;;12.80;99.90;;;;;;4939140;28;20595;-90
2022/06/12 01:39:05;;;;;;;0.20;0.20;;;12.70;99.90;;;;;;4947222;28;20441;-91
2022/06/12 01:41:44;;;;;;;0.10;0.10;;;12.80;99.90;;;;;;4927872;28;20504;-90
2022/06/12 01:44:35;;;;;;;0.10;0.10;;;12.70;99.90;;;;;;4949428;28;20588;-90
2022/06/12 01:47:22;;;;;;;0.10;0.10;;;12.60;99.90;;;;;;4945510;28;20549;-90
2022/06/12 01:50:06;;;;;;;0.17;0.17;;;12.50;99.90;;;;;;4948809;28;20443;-91
2022/06/12 01:53:00;;;;;;;0.10;0.10;;;12.50;99.90;;;;;;4936493;28;20879;-90
2022/06/12 01:55:36;;;;;;;0.10;0.10;;;12.30;99.90;;;;;;4948026;28;20480;-88
2022/06/12 01:58:10;;;;;;;0.20;0.20;;;12.40;99.90;;;;;;4950262;28;20465;-89
2022/06/12 02:00:37;;;;;;;0.20;0.20;;;12.40;99.90;;;;;;4949351;28;20465;-89
2022/06/12 02:03:25;;;;;;;0.10;0.10;;;12.40;99.90;;;;;;4929458;28;20974;-89
2022/06/12 02:06:01;;;;;;;0.10;0.10;;;12.30;99.90;;;;;;4941674;28;20516;-90
2022/06/12 02:08:36;;;;;;;0.10;0.10;;;12.30;99.90;;;;;;4950887;28;20452;-91
2022/06/12 02:14:07;;;;;;;0.10;0.10;;;12.30;99.90;;;;;;4951082;28;20500;-89
2022/06/12 02:16:36;;;;;;;0.10;0.10;;;12.40;99.90;;;;;;4946310;28;20446;-90
2022/06/12 02:19:16;;;;;;;0.20;0.20;;;12.30;99.90;;;;;;4947037;28;20438;-89
2022/06/12 02:21:48;;;;;;;0.10;0.10;;;12.40;99.90;;;;;;4947816;28;20454;-88
2022/06/12 02:24:37;;;;;;;0.10;0.10;;;12.50;99.90;;;;;;4945948;28;20448;-88
2022/06/12 02:27:08;;;;;;;0.10;0.10;;;12.40;99.90;;;;;;4945045;28;20486;-89
2022/06/12 02:29:54;;;;;;;0.10;0.10;;;12.20;99.90;;;;;;4947986;28;20945;-89
2022/06/12 02:32:26;;;;;;;0.10;0.10;;;12.40;99.90;;;;;;4934303;28;20485;-90
2022/06/12 02:34:57;;;;;;;0.10;0.10;;;12.40;99.90;;;;;;4946205;28;20446;-89
2022/06/12 02:37:32;;;;;;;0.20;0.20;;;12.50;99.90;;;;;;4945779;29;20458;-89
2022/06/12 02:40:03;;;;;;;0.13;0.13;;;12.50;99.90;;;;;;4949349;28;20434;-90
2022/06/12 02:42:37;;;;;;;0.10;0.10;;;12.50;99.90;;;;;;4952436;29;20438;-90
2022/06/12 02:45:18;;;;;;;0.10;0.10;;;12.30;99.90;;;;;;4934560;28;20622;-89
2022/06/12 02:47:46;;;;;;;0.10;0.10;;;12.30;99.90;;;;;;4952889;28;20445;-89
2022/06/12 02:50:15;;;;;;;0.10;0.10;;;12.30;99.90;;;;;;4951338;28;20446;-89
2022/06/12 02:52:48;;;;;;;0.20;0.20;;;12.30;99.90;;;;;;4950630;28;20466;-91
2022/06/12 02:55:19;;;;;;;0.20;0.20;;;12.20;99.90;;;;;;4946974;28;21158;-89
2022/06/12 02:57:54;;;;;;;0.10;0.10;;;12.20;99.90;;;;;;4949742;29;20454;-89
2022/06/12 03:00:31;;;;;;;0.20;0.20;;;12.30;99.90;;;;;;4948348;28;21040;-89
2022/06/12 03:03:31;;;;;;;0.20;0.20;;;12.20;99.90;;;;;;4952258;29;20491;-88
2022/06/12 03:05:59;;;;;;;0.20;0.20;;;12.10;99.90;;;;;;4959909;28;20462;-87
2022/06/12 03:08:29;;;;;;;0.20;0.20;;;12.00;99.90;;;;;;4948496;28;20552;-88
2022/06/12 03:11:02;;;;;;;0.20;0.20;;;12.10;99.90;;;;;;4946226;28;20862;-87
2022/06/12 03:13:30;;;;;;;0.20;0.20;;;12.10;99.90;;;;;;4948670;28;20437;-88
2022/06/12 03:16:10;;;;;;;0.20;0.20;;;12.10;99.90;;;;;;4951391;28;20453;-88
2022/06/12 03:18:39;;;;;;;0.20;0.20;;;12.10;99.90;;;;;;4945692;28;20966;-88
2022/06/12 03:21:27;;;;;;;0.10;0.10;;;12.00;99.90;;;;;;4948136;29;20493;-88
2022/06/12 03:24:05;;;;;;;0.10;0.10;;;12.10;99.90;;;;;;4946319;28;20450;-88
2022/06/12 03:26:30;;;;;;;0.10;0.10;;;12.10;99.90;;;;;;4948119;28;20485;-88
2022/06/12 03:29:07;;;;;;;0.20;0.20;;;12.10;99.90;;;;;;4949983;28;20457;-87
2022/06/12 03:31:57;;;;;;;0.13;0.13;;;12.10;99.90;;;;;;4948704;28;20229;-87
2022/06/12 03:34:38;;;;;;;0.20;0.20;;;12.10;99.90;;;;;;4931447;28;20449;-88
2022/06/12 03:37:13;;;;;;;0.10;0.10;;;12.10;99.90;;;;;;4946108;28;21189;-87
2022/06/12 03:39:53;;;;;;;0.20;0.20;;;12.20;99.90;;;;;;4948047;28;20823;-87
2022/06/12 03:42:22;;;;;;;0.10;0.10;;;12.20;99.90;;;;;;4933522;28;20876;-88
2022/06/12 03:45:01;;;;;;;0.20;0.20;;;12.30;99.90;;;;;;4948055;28;20434;-88
2022/06/12 03:47:41;;;;;;;0.10;0.10;;;12.30;99.90;;;;;;4949751;28;20446;-87
2022/06/12 03:50:17;;;;;;;0.20;0.20;;;12.40;99.90;;;;;;4950373;28;20441;-87
2022/06/12 03:53:04;;;;;;;0.13;0.13;;;12.40;99.90;;;;;;4945493;28;20529;-87
2022/06/12 03:58:29;;;;;;;0.20;0.20;;;12.40;99.90;;;;;;4942224;28;20586;-88
2022/06/12 04:00:57;;;;;;;0.10;0.10;;;12.40;99.90;;;;;;4948373;28;20538;-86
2022/06/12 04:03:34;;;;;;;0.10;0.10;;;12.40;99.90;;;;;;4934567;29;20446;-87
2022/06/12 04:06:04;;;;;;;0.10;0.10;;;12.40;99.90;;;;;;4957936;28;20471;-87
2022/06/12 04:08:48;;;;;;;0.10;0.10;;;12.40;99.90;;;;;;4950505;28;20516;-87
2022/06/12 04:11:17;;;;;;;0.20;0.20;;;12.40;99.90;;;;;;4947513;28;20493;-89
2022/06/12 04:13:43;;;;;;;0.10;0.10;;;12.50;99.90;;;;;;4946659;29;20816;-88
2022/06/12 04:16:12;;;;;;;0.20;0.20;;;12.50;99.90;;;;;;4945165;28;20457;-88
2022/06/12 04:18:38;;;;;;;0.10;0.10;;;12.50;99.90;;;;;;4990817;28;20847;-88
2022/06/12 04:21:30;;;;;;;0.10;0.10;;;12.50;99.90;;;;;;4950012;28;20451;-88
2022/06/12 04:24:14;;;;;;;0.10;0.10;;;12.50;99.90;;;;;;4948934;29;20183;-89
2022/06/12 04:26:45;;;;;;;0.10;0.10;;;12.60;99.90;;;;;;4993262;28;20486;-88
2022/06/12 04:29:10;;;;;;;0.10;0.10;;;12.60;99.90;;;;;;4951198;28;20799;-89
2022/06/12 04:31:37;;;;;;;0.10;0.10;;;12.70;99.90;;;;;;4951795;28;20486;-88
2022/06/12 04:34:28;;;;;;;0.10;0.10;;;12.70;99.90;;;;;;4943363;29;20190;-89
2022/06/12 04:36:57;;;;;;;0.10;0.10;;;12.80;99.90;;;;;;4948273;29;20516;-88
2022/06/12 04:39:27;;;;;;;0.13;0.13;;;12.80;99.90;;;;;;4950631;29;20434;-90
2022/06/12 04:41:53;;;;;;;0.17;0.17;;;12.80;99.90;;;;;;4943922;28;20451;-89
2022/06/12 04:44:19;;;;;;;0.10;0.10;;;12.90;99.90;;;;;;4949324;28;20446;-89
2022/06/12 04:46:48;;;;;;;0.10;0.10;;;13.00;99.90;;;;;;4933548;28;20803;-89
2022/06/12 04:49:17;;;;;;;0.10;0.10;;;13.00;99.90;;;;;;4947703;28;20466;-89
2022/06/12 04:51:43;;;;;;;0.10;0.10;;;13.10;99.90;;;;;;4949203;29;20474;-89
2022/06/12 04:54:09;;;;;;;0.10;0.10;;;13.10;99.90;;;;;;4948082;28;20553;-92
2022/06/12 04:56:35;;;;;;;0.10;0.10;;;13.20;99.90;;;;;;4949903;29;20945;-88
2022/06/12 04:59:02;;;;;;;0.10;0.10;;;13.30;99.90;;;;;;4931012;28;20522;-88
2022/06/12 05:01:28;;;;;;;0.10;0.10;;;13.40;99.90;;;;;;4945470;28;20458;-89
2022/06/12 05:03:54;;;;;;;0.10;0.10;;;13.40;99.90;;;;;;4945075;28;20806;-90
2022/06/12 05:06:20;;;;;;;0.10;0.10;;;13.60;99.90;;;;;;4947811;28;20202;-90
2022/06/12 05:08:47;;;;;;;0.10;0.10;;;13.70;99.90;;;;;;4932617;28;20253;-88
2022/06/12 05:11:14;;;;;;;0.10;0.10;;;13.70;99.90;;;;;;4947184;29;20285;-89
2022/06/12 05:13:39;;;;;;;0.10;0.10;;;13.90;99.90;;;;;;4946733;28;20454;-90
2022/06/12 05:16:06;;;;;;;0.10;0.10;;;14.00;99.90;;;;;;4946542;28;20691;-90
2022/06/12 05:18:32;;;;;;;0.10;0.10;;;14.00;99.90;;;;;;4945517;28;20196;-89
2022/06/12 05:20:58;;;;;;;0.10;0.10;;;14.10;99.90;;;;;;4945728;28;20786;-88
2022/06/12 05:23:23;;;;;;;0.10;0.10;;;14.20;99.90;;;;;;4962346;28;20450;-87
2022/06/12 05:25:50;;;;;;;0.10;0.10;;;14.30;99.90;;;;;;4946541;28;20291;-90
2022/06/12 05:28:18;;;;;;;0.10;0.10;;;14.40;99.90;;;;;;4927674;28;20192;-90
2022/06/12 05:30:45;;;;;;;0.10;0.10;;;14.50;99.90;;;;;;4945510;28;20513;-90
2022/06/12 05:33:11;;;;;;;0.10;0.10;;;14.60;99.90;;;;;;4944873;28;20469;-88
2022/06/12 05:35:38;;;;;;;0.10;0.10;;;14.70;99.90;;;;;;4946793;29;20438;-89
2022/06/12 05:38:05;;;;;;;0.10;0.10;;;14.80;99.90;;;;;;4946771;29;20962;-91
2022/06/12 05:40:34;;;;;;;0.10;0.10;;;14.90;99.90;;;;;;4958994;28;20442;-88
2022/06/12 05:43:00;;;;;;;0.10;0.10;;;15.00;99.90;;;;;;4948081;28;20813;-89
2022/06/12 05:45:28;;;;;;;0.10;0.10;;;15.10;99.90;;;;;;4948177;28;20438;-88
2022/06/12 05:47:58;;;;;;;0.10;0.10;;;15.10;99.90;;;;;;4982764;28;20442;-86
2022/06/12 05:50:28;;;;;;;0.10;0.10;;;15.30;99.90;;;;;;4956608;28;21206;-87
2022/06/12 05:52:54;;;;;;;0.10;0.10;;;15.40;99.90;;;;;;4944058;29;20529;-89
2022/06/12 05:55:21;;;;;;;0.10;0.10;;;15.40;99.90;;;;;;4948132;28;20540;-88
2022/06/12 05:57:46;;;;;;;0.10;0.10;;;15.50;99.90;;;;;;4947504;28;20270;-87
2022/06/12 06:00:23;;;;;;;0.10;0.10;;;15.50;99.90;;;;;;4949348;28;20529;-87
2022/06/12 06:02:49;;;;;;;0.10;0.10;;;15.60;99.90;;;;;;4946511;28;20186;-88
2022/06/12 06:05:14;;;;;;;0.10;0.10;;;15.70;99.90;;;;;;4949365;28;20842;-90
2022/06/12 06:07:41;;;;;;;0.10;0.10;;;15.90;99.90;;;;;;4948429;28;20198;-92
2022/06/12 06:10:11;;;;;;;0.10;0.10;;;15.90;99.90;;;;;;4946507;29;20217;-89
2022/06/12 06:12:37;;;;;;;0.10;0.10;;;15.90;99.90;;;;;;4940986;28;20482;-92
2022/06/12 06:15:02;;;;;;;0.10;0.10;;;16.00;99.90;;;;;;4946713;28;20856;-89
2022/06/12 06:17:28;;;;;;;0.10;0.10;;;16.20;99.90;;;;;;4945410;28;20314;-89
2022/06/12 06:19:53;;;;;;;0.10;0.10;;;16.30;99.90;;;;;;4944660;28;20195;-89
2022/06/12 06:22:20;;;;;;;0.10;0.10;;;16.30;99.90;;;;;;4944626;28;20210;-89
2022/06/12 06:24:46;;;;;;;0.10;0.10;;;16.40;99.90;;;;;;4946561;28;20210;-88
2022/06/12 06:27:13;;;;;;;0.10;0.10;;;16.50;99.90;;;;;;4927126;28;20519;-86
2022/06/12 06:29:39;;;;;;;0.10;0.10;;;16.70;99.90;;;;;;4928652;29;20481;-91
2022/06/12 06:32:07;;;;;;;0.10;0.10;;;16.70;99.90;;;;;;4921997;29;20514;-89
2022/06/12 06:34:34;;;;;;;0.10;0.10;;;16.80;99.90;;;;;;4927213;29;20447;-89
2022/06/12 06:37:00;;;;;;;0.10;0.10;;;16.90;99.90;;;;;;4932212;29;20464;-88
2022/06/12 06:39:26;;;;;;;0.10;0.10;;;16.90;99.90;;;;;;4937868;28;20500;-88
2022/06/12 06:41:51;;;;;;;0.10;0.10;;;17.00;99.90;;;;;;4928908;28;20443;-86
2022/06/12 06:47:01;;;;;;;0.10;0.10;;;17.20;99.90;;;;;;4927710;29;20194;-87
2022/06/12 06:49:26;;;;;;;0.10;0.10;;;17.30;99.90;;;;;;4926045;29;20463;-88
2022/06/12 06:51:52;;;;;;;0.10;0.10;;;17.30;99.90;;;;;;4927647;29;20259;-88
2022/06/12 06:54:18;;;;;;;0.10;0.10;;;17.60;99.90;;;;;;4932457;28;20203;-87
2022/06/12 06:56:44;;;;;;;0.10;0.10;;;17.70;99.90;;;;;;4924774;29;20556;-91
2022/06/12 06:59:09;;;;;;;0.10;0.10;;;17.70;99.90;;;;;;4922991;28;20536;-87
2022/06/12 07:01:35;;;;;;;0.10;0.10;;;17.90;99.90;;;;;;4925407;29;20205;-88
2022/06/12 07:04:02;;;;;;;0.10;0.10;;;17.90;99.90;;;;;;4927701;29;20241;-91
2022/06/12 07:06:28;;;;;;;0.10;0.10;;;18.10;99.90;;;;;;4944239;28;20199;-87
2022/06/12 07:08:54;;;;;;;0.10;0.10;;;18.10;99.90;;;;;;4941548;28;20562;-89
2022/06/12 07:11:20;;;;;;;0.10;0.10;;;18.40;99.90;;;;;;4922431;29;20220;-89
2022/06/12 07:13:46;;;;;;;0.10;0.10;;;18.60;99.90;;;;;;4959974;28;20467;-88
2022/06/12 07:16:12;;;;;;;0.00;0.00;;;18.70;99.90;;;;;;4942639;28;20455;-91
2022/06/12 07:18:38;;;;;;;0.10;0.10;;;18.70;99.90;;;;;;4933612;28;20731;-88
2022/06/12 07:21:04;;;;;;;0.10;0.10;;;18.70;99.90;;;;;;4927229;28;20500;-87
2022/06/12 07:23:31;;;;;;;0.10;0.10;;;18.60;99.90;;;;;;4927675;28;20640;-90
2022/06/12 07:26:03;;;;;;;0.10;0.10;;;18.60;99.90;;;;;;4933650;28;20223;-87
2022/06/12 07:28:29;;;;;;;0.07;0.00;;;18.80;99.90;;;;;;4952468;28;20449;-86
2022/06/12 07:30:55;;;;;;;0.00;0.00;;;19.00;99.90;;;;;;4947858;28;20960;-86
2022/06/12 07:33:21;;;;;;;0.00;0.00;;;19.00;99.90;;;;;;4947576;28;20189;-89
2022/06/12 07:35:48;;;;;;;0.00;0.00;;;18.80;99.90;;;;;;4947378;28;20442;-86
2022/06/12 07:38:15;;;;;;;0.10;0.10;;;18.40;99.90;;;;;;4950359;28;21168;-87
2022/06/12 07:40:45;;;;;;;0.10;0.07;;;18.20;99.90;;;;;;4949329;28;20524;-85
2022/06/12 07:43:11;;;;;;;0.10;0.10;;;18.10;99.90;;;;;;4945898;28;20442;-86
2022/06/12 07:45:39;;;;;;;0.10;0.00;;;18.30;99.90;;;;;;4950526;28;22383;-85
2022/06/12 07:48:05;;;;;;;0.10;0.10;;;18.70;99.90;;;;;;4946950;29;20194;-87
2022/06/12 07:50:31;;;;;;;0.00;0.00;;;18.70;99.90;;;;;;4946747;29;20473;-86
2022/06/12 07:52:58;;;;;;;0.10;0.00;;;18.50;99.90;;;;;;4948880;28;20543;-86
2022/06/12 07:55:24;;;;;;;0.10;0.10;;;18.60;99.90;;;;;;4951846;28;20187;-86
2022/06/12 07:57:50;;;;;;;0.10;0.10;;;18.50;99.90;;;;;;4949069;28;20458;-86
2022/06/12 08:00:16;;;;;;;0.10;0.10;;;18.80;99.90;;;;;;4947742;28;20453;-87
2022/06/12 08:02:43;;;;;;;0.10;0.00;;;19.00;99.90;;;;;;4949559;29;20232;-87
2022/06/12 08:05:09;;;;;;;0.10;0.10;;;19.20;99.90;;;;;;4948355;28;20450;-87
2022/06/12 08:07:35;;;;;;;0.10;0.10;;;19.30;99.90;;;;;;4948670;29;20524;-85
2022/06/12 08:10:03;;;;;;;0.10;0.10;;;19.60;99.90;;;;;;4947212;28;21176;-86
2022/06/12 08:12:31;;;;;;;0.10;0.10;;;19.50;99.90;;;;;;4949561;29;20226;-86
2022/06/12 08:14:56;;;;;;;0.10;0.00;;;19.30;99.90;;;;;;4951211;29;20423;-88
2022/06/12 08:17:22;;;;;;;0.10;0.10;;;19.60;99.90;;;;;;4951109;28;20433;-86
2022/06/12 08:22:33;;;;;;;0.10;0.00;;;20.00;99.90;;;;;;4949081;28;20210;-87
2022/06/12 08:24:58;;;;;;;0.10;0.00;;;19.80;99.90;;;;;;4948188;28;20559;-87
2022/06/12 08:27:24;;;;;;;0.10;0.10;;;19.70;99.90;;;;;;4948362;28;20473;-87
2022/06/12 08:29:49;;;;;;;0.10;0.10;;;20.10;99.90;;;;;;4949634;29;20537;-85
2022/06/12 08:32:19;;;;;;;0.10;0.00;;;20.30;99.90;;;;;;4949481;28;20249;-86
2022/06/12 08:34:49;;;;;;;0.10;0.00;;;20.50;99.90;;;;;;4950957;28;20253;-87
2022/06/12 08:37:47;;;;;;;0.10;0.10;;;20.60;99.90;;;;;;4930115;28;20449;-86
2022/06/12 08:40:25;;;;;;;0.10;0.00;;;21.00;99.90;;;;;;4919705;28;20844;-87
2022/06/12 08:43:08;;;;;;;0.10;0.00;;;21.40;99.90;;;;;;4949469;29;20935;-89
2022/06/12 08:45:41;;;;;;;0.10;0.00;;;21.50;99.90;;;;;;4949317;28;20450;-90
2022/06/12 08:48:31;;;;;;;0.10;0.00;;;20.90;99.90;;;;;;4947028;29;20450;-87
2022/06/12 08:51:12;;;;;;;0.10;0.00;;;20.50;99.90;;;;;;4949764;28;20500;-89
2022/06/12 08:54:10;;;;;;;0.10;0.00;;;20.80;99.90;;;;;;4945922;28;20535;-87
2022/06/12 08:56:50;;;;;;;0.10;0.00;;;21.10;99.90;;;;;;4941672;28;20967;-87
2022/06/12 08:59:25;;;;;;;0.10;0.10;;;21.50;99.90;;;;;;4922593;28;20790;-87
2022/06/12 09:01:50;;;;;;;0.10;0.00;;;21.60;99.90;;;;;;4948757;28;20516;-85
2022/06/12 09:04:21;;;;;;;0.10;0.00;;;21.10;99.90;;;;;;4948873;28;20434;-87
2022/06/12 09:07:04;;;;;;;0.10;0.00;;;21.20;99.90;;;;;;4943330;28;20186;-87
2022/06/12 09:09:38;;;;;;;0.10;0.00;;;21.40;99.90;;;;;;4948533;28;20981;-87
2022/06/12 09:12:30;;;;;;;0.10;0.00;;;21.80;99.90;;;;;;4946042;28;20506;-88
2022/06/12 09:15:25;;;;;;;0.10;0.00;;;22.30;99.90;;;;;;4948528;28;20457;-86
2022/06/12 09:18:00;;;;;;;0.10;0.00;;;22.40;99.90;;;;;;4946059;28;20446;-88
2022/06/12 09:20:31;;;;;;;0.10;0.00;;;22.60;99.90;;;;;;4948137;29;20445;-86
2022/06/12 09:23:03;;;;;;;0.10;0.00;;;22.80;99.90;;;;;;4942971;28;20545;-89
2022/06/12 09:25:47;;;;;;;0.10;0.00;;;22.60;99.90;;;;;;4943542;28;20466;-88
2022/06/12 09:28:53;;;;;;;0.10;0.00;;;21.90;99.90;;;;;;4943311;28;20536;-87
2022/06/12 09:31:46;;;;;;;0.10;0.00;;;21.90;99.90;;;;;;4951152;28;20535;-87
2022/06/12 09:34:31;;;;;;;0.10;0.00;;;22.20;99.90;;;;;;4949590;28;20442;-87
2022/06/12 09:40:31;;;;;;;0.10;0.00;;;22.80;99.90;;;;;;4936589;28;20484;-88
2022/06/12 09:43:02;;;;;;;0.10;0.00;;;22.70;99.90;;;;;;4944570;28;20537;-88
2022/06/12 09:45:32;;;;;;;0.10;0.00;;;22.90;99.90;;;;;;4948035;28;20446;-88
2022/06/12 09:48:20;;;;;;;0.10;0.00;;;23.30;99.90;;;;;;4943067;28;20808;-90
2022/06/12 09:51:05;;;;;;;0.10;0.00;;;23.60;99.90;;;;;;4915636;28;20474;-90
2022/06/12 09:53:45;;;;;;;0.10;0.00;;;22.80;99.90;;;;;;4948577;28;20453;-87
2022/06/12 09:56:20;;;;;;;0.10;0.00;;;22.50;99.90;;;;;;4946852;28;20477;-87
2022/06/12 09:58:59;;;;;;;0.10;0.00;;;22.60;99.90;;;;;;4948507;29;20463;-88
2022/06/12 10:01:34;;;;;;;0.10;0.00;;;23.40;99.90;;;;;;4927630;28;20446;-88
2022/06/12 10:04:07;;;;;;;0.10;0.00;;;23.50;99.90;;;;;;4949917;28;20438;-88
2022/06/12 10:06:48;;;;;;;0.10;0.00;;;23.70;99.90;;;;;;4945661;28;20809;-90
2022/06/12 10:09:35;;;;;;;0.10;0.00;;;24.20;99.90;;;;;;4949095;28;20466;-87
2022/06/12 10:12:18;;;;;;;0.10;0.00;;;24.40;99.90;;;;;;4947705;28;20501;-88
2022/06/12 10:14:49;;;;;;;0.10;0.00;;;24.50;99.90;;;;;;4941498;28;20438;-84
2022/06/12 10:17:32;;;;;;;0.10;0.00;;;24.00;99.90;;;;;;4945347;28;20542;-87
2022/06/12 10:20:08;;;;;;;0.10;0.00;;;23.90;99.90;;;;;;4946732;28;20534;-87
2022/06/12 10:22:43;;;;;;;0.10;0.00;;;24.30;99.90;;;;;;4929511;28;20604;-90
2022/06/12 10:25:27;;;;;;;0.10;0.00;;;24.60;99.90;;;;;;4947699;28;20552;-86
2022/06/12 10:27:59;;;;;;;0.10;0.00;;;25.20;99.90;;;;;;4951390;28;20434;-87
2022/06/12 10:30:45;;;;;;;0.10;0.00;;;25.80;99.90;;;;;;4963944;28;20461;-87
2022/06/12 10:33:23;;;;;;;0.10;0.00;;;24.10;99.90;;;;;;4963390;28;21010;-86
2022/06/12 10:35:53;;;;;;;0.10;0.00;;;23.80;99.90;;;;;;4952334;28;20448;-87
2022/06/12 10:38:21;;;;;;;0.10;0.00;;;24.20;99.90;;;;;;4947203;28;20450;-84
2022/06/12 10:41:20;;;;;;;0.10;0.00;;;24.90;99.90;;;;;;4950772;28;20473;-88
2022/06/12 10:43:51;;;;;;;0.10;0.00;;;24.30;99.90;;;;;;4930571;28;20454;-85
2022/06/12 10:46:19;;;;;;;0.10;0.00;;;24.10;99.90;;;;;;4943248;28;20814;-87
2022/06/12 10:49:02;;;;;;;0.10;0.00;;;23.90;99.90;;;;;;4942455;28;20453;-88
2022/06/12 10:51:38;;;;;;;0.10;0.00;;;23.20;99.90;;;;;;4943950;28;20635;-85
2022/06/12 10:54:19;;;;;;;0.10;0.00;;;22.80;99.90;;;;;;4942953;28;20453;-84
2022/06/12 10:57:07;;;;;;;0.10;0.00;;;23.20;99.90;;;;;;4944613;29;20458;-85
2022/06/12 10:59:59;;;;;;;0.10;0.00;;;23.20;99.90;;;;;;4943511;28;20446;-86
2022/06/12 11:02:54;;;;;;;0.10;0.00;;;24.90;99.90;;;;;;4949658;28;20442;-85
2022/06/12 11:05:38;;;;;;;0.10;0.00;;;25.40;99.90;;;;;;4951901;28;20460;-87
2022/06/12 11:08:16;;;;;;;0.10;0.00;;;25.90;99.90;;;;;;4950309;29;20553;-85
2022/06/12 11:10:53;;;;;;;0.10;0.00;;;26.20;99.90;;;;;;4950835;28;20477;-85
2022/06/12 11:13:54;;;;;;;0.10;0.00;;;26.50;99.90;;;;;;4948437;28;21060;-89
2022/06/12 11:16:50;;;;;;;0.10;0.00;;;27.10;99.90;;;;;;4942957;28;20495;-86
2022/06/12 11:19:46;;;;;;;0.10;0.00;;;26.80;99.90;;;;;;4949775;28;20953;-85
2022/06/12 11:22:32;;;;;;;0.10;0.00;;;26.80;99.90;;;;;;4951334;28;20946;-83
2022/06/12 11:25:33;;;;;;;0.10;0.00;;;26.40;99.90;;;;;;4934177;29;20504;-84
2022/06/12 11:28:23;;;;;;;0.10;0.00;;;26.70;99.90;;;;;;4948994;29;20457;-85
2022/06/12 11:30:56;;;;;;;0.10;0.00;;;26.00;99.90;;;;;;4949203;28;20480;-86
2022/06/12 11:33:55;;;;;;;0.10;0.00;;;25.70;99.90;;;;;;4934230;28;20450;-85
2022/06/12 11:36:45;;;;;;;0.10;0.00;;;26.80;99.90;;;;;;4943369;28;20485;-86
2022/06/12 11:39:41;;;;;;;0.10;0.00;;;26.60;99.90;;;;;;4950330;28;20584;-85
2022/06/12 11:42:25;;;;;;;0.10;0.00;;;26.70;99.90;;;;;;4974202;28;20454;-85
2022/06/12 11:45:18;;;;;;;0.10;0.00;;;26.40;99.90;;;;;;4948795;28;20450;-87
2022/06/12 11:48:17;;;;;;;0.10;0.00;;;26.80;99.90;;;;;;4948243;28;20458;-85
2022/06/12 11:50:53;;;;;;;0.10;0.00;;;26.60;99.90;;;;;;4945954;28;20442;-84
2022/06/12 11:53:32;;;;;;;0.10;0.00;;;26.60;99.90;;;;;;4947880;28;20493;-85
2022/06/12 11:56:05;;;;;;;0.10;0.00;;;27.60;99.90;;;;;;4946004;28;20438;-84
2022/06/12 11:58:41;;;;;;;0.10;0.00;;;27.60;99.90;;;;;;4951142;28;20458;-86
2022/06/12 12:01:13;;;;;;;0.10;0.00;;;27.90;98.50;;;;;;4950082;28;20834;-86
2022/06/12 12:03:49;;;;;;;0.10;0.00;;;28.10;98.30;;;;;;4952057;28;21123;-86
2022/06/12 12:06:36;;;;;;;0.10;0.00;;;28.60;98.50;;;;;;4949189;28;20945;-86
2022/06/12 12:09:16;;;;;;;0.10;0.00;;;27.40;99.90;;;;;;4947897;28;20460;-86
2022/06/12 12:11:49;;;;;;;0.10;0.00;;;27.70;99.70;;;;;;4941378;28;20488;-85
2022/06/12 12:14:24;;;;;;;0.10;0.00;;;28.00;99.20;;;;;;4950300;28;20450;-84
2022/06/12 12:17:09;;;;;;;0.10;0.00;;;28.70;98.20;;;;;;4948236;29;20445;-84
2022/06/12 12:19:49;;;;;;;0.10;0.00;;;28.30;97.80;;;;;;4946891;28;20452;-84
2022/06/12 12:22:33;;;;;;;0.10;0.00;;;27.90;97.30;;;;;;4947141;28;20500;-85
2022/06/12 12:25:13;;;;;;;0.10;0.00;;;27.70;99.80;;;;;;4947336;28;20575;-82
2022/06/12 12:27:45;;;;;;;0.10;0.00;;;28.90;99.60;;;;;;4957455;28;20453;-84
2022/06/12 12:30:21;;;;;;;0.10;0.00;;;28.00;99.30;;;;;;4949222;28;20464;-83
2022/06/12 12:32:49;;;;;;;0.10;0.00;;;28.20;99.80;;;;;;4944131;28;20510;-82
2022/06/12 12:41:11;;;;;;;0.10;0.00;;;27.20;98.40;;;;;;4948158;28;20989;-83
2022/06/12 12:43:32;;;;;;;0.10;0.00;;;26.10;99.90;;;;;;4945536;28;20821;-81
2022/06/12 12:46:04;;;;;;;0.10;0.00;;;26.90;99.40;;;;;;4946568;28;20466;-82
2022/06/12 12:48:42;;;;;;;0.10;0.00;;;27.90;99.90;;;;;;4952528;28;20186;-84
2022/06/12 12:51:08;;;;;;;0.10;0.00;;;27.60;99.10;;;;;;4944748;28;20485;-83
2022/06/12 12:53:38;;;;;;;0.10;0.00;;;27.80;97.70;;;;;;4944649;28;20453;-82
2022/06/12 12:56:13;;;;;;;0.10;0.00;;;28.30;98.30;;;;;;4946665;28;20427;-81
2022/06/12 12:58:39;;;;;;;0.10;0.00;;;28.00;97.60;;;;;;4947476;28;20454;-82
2022/06/12 13:01:26;;;;;;;0.10;0.00;;;27.70;96.90;;;;;;4944690;28;20462;-82
2022/06/12 13:04:11;;;;;;;0.10;0.00;;;27.40;95.10;;;;;;4940340;28;20454;-82
2022/06/12 13:07:09;;;;;;;0.10;0.00;;;27.80;98.60;;;;;;4943113;29;20538;-85
2022/06/12 13:09:53;;;;;;;0.10;0.00;;;28.10;99.30;;;;;;4946266;28;20540;-83
2022/06/12 13:12:20;;;;;;;0.10;0.00;;;27.10;98.70;;;;;;4945745;29;20512;-84
2022/06/12 13:15:15;;;;;;;0.10;0.00;;;27.00;98.40;;;;;;4944398;29;20580;-83
2022/06/12 13:18:02;;;;;;;0.10;0.00;;;25.00;99.80;;;;;;4941900;28;21257;-83
2022/06/12 13:20:59;;;;;;;0.10;0.00;;;25.00;99.90;;;;;;4942848;29;20458;-84
2022/06/12 13:23:58;;;;;;;0.10;0.00;;;25.10;99.70;;;;;;4941425;29;20493;-83
2022/06/12 13:26:25;;;;;;;0.10;0.00;;;25.30;99.90;;;;;;4937572;28;20509;-83
2022/06/12 13:28:56;;;;;;;0.10;0.00;;;26.20;99.90;;;;;;4944078;28;20885;-85
2022/06/12 13:31:22;;;;;;;0.10;0.00;;;26.30;99.90;;;;;;4943512;29;20573;-81
2022/06/12 13:33:56;;;;;;;0.10;0.10;;;25.90;99.60;;;;;;4946558;28;20537;-83
2022/06/12 13:36:26;;;;;;;0.10;0.00;;;25.50;99.90;;;;;;4946469;28;20210;-84
2022/06/12 13:39:26;;;;;;;0.10;0.00;;;25.40;99.90;;;;;;4944190;28;20469;-84
2022/06/12 13:42:00;;;;;;;0.10;0.00;;;25.60;99.50;;;;;;4948253;28;20511;-84
2022/06/12 13:44:30;;;;;;;0.10;0.00;;;26.00;99.80;;;;;;4941930;28;20443;-83
2022/06/12 13:46:58;;;;;;;0.10;0.00;;;25.20;99.00;;;;;;4952661;28;20445;-83